createdAt,value
2023-03-20T00:01:14.621Z,7.20
2023-03-20T00:03:41.276Z,5.60
2023-03-20T00:06:40.224Z,5.13
2023-03-20T00:09:08.206Z,8.90
2023-03-20T00:11:48.200Z,9.73
2023-03-20T00:14:16.458Z,7.00
2023-03-20T00:16:46.006Z,8.52
2023-03-20T00:19:27.468Z,6.93
2023-03-20T00:21:54.907Z,8.07
2023-03-20T00:24:21.920Z,5.53
2023-03-20T00:26:49.363Z,11.35
2023-03-20T00:29:24.052Z,7.07
2023-03-20T00:31:51.288Z,6.63
2023-03-20T00:34:19.562Z,5.50
2023-03-20T00:36:46.504Z,6.25
2023-03-20T00:39:13.046Z,5.40
2023-03-20T00:41:39.384Z,5.13
2023-03-20T00:44:18.888Z,5.90
2023-03-20T00:46:47.424Z,6.03
2023-03-20T00:49:14.058Z,5.55
2023-03-20T00:51:40.513Z,7.13
2023-03-20T00:54:15.444Z,5.82
2023-03-20T00:56:45.766Z,6.18
2023-03-20T00:59:19.245Z,5.90
2023-03-20T01:01:46.757Z,6.18
2023-03-20T01:04:14.753Z,8.45
2023-03-20T01:06:41.617Z,5.72
2023-03-20T01:09:08.457Z,7.28
2023-03-20T01:11:35.277Z,6.20
2023-03-20T01:14:02.183Z,6.30
2023-03-20T01:16:29.064Z,6.53
2023-03-20T01:18:55.872Z,5.93
2023-03-20T01:21:22.473Z,6.35
2023-03-20T01:23:49.514Z,4.93
2023-03-20T01:26:22.801Z,5.45
2023-03-20T01:28:50.643Z,7.82
2023-03-20T01:31:18.198Z,5.38
2023-03-20T01:33:45.718Z,5.70
2023-03-20T01:36:18.190Z,7.20
2023-03-20T01:38:44.813Z,5.40
2023-03-20T01:41:16.526Z,5.75
2023-03-20T01:43:44.959Z,5.50
2023-03-20T01:46:25.665Z,6.32
2023-03-20T01:49:08.608Z,6.65
2023-03-20T01:51:37.589Z,7.25
2023-03-20T01:54:16.339Z,4.72
2023-03-20T01:57:16.037Z,4.82
2023-03-20T01:59:56.287Z,4.30
2023-03-20T02:02:26.107Z,6.38
2023-03-20T02:04:56.772Z,5.35
2023-03-20T02:07:23.768Z,4.30
2023-03-20T02:10:03.808Z,4.75
2023-03-20T02:12:43.944Z,5.45
2023-03-20T02:15:15.316Z,4.30
2023-03-20T02:18:17.412Z,5.50
2023-03-20T02:21:09.576Z,4.78
2023-03-20T02:23:54.634Z,4.55
2023-03-20T02:26:44.829Z,4.80
2023-03-20T02:29:36.660Z,4.45
2023-03-20T02:32:29.249Z,4.15
2023-03-20T02:35:20.579Z,5.03
2023-03-20T02:37:49.622Z,4.47
2023-03-20T02:40:31.390Z,4.22
2023-03-20T02:43:03.820Z,4.80
2023-03-20T02:45:37.144Z,4.78
2023-03-20T02:48:27.709Z,4.55
2023-03-20T02:51:02.491Z,4.10
2023-03-20T02:53:39.067Z,4.30
2023-03-20T02:56:21.435Z,4.57
2023-03-20T02:59:00.472Z,4.43
2023-03-20T03:01:40.422Z,4.28
2023-03-20T03:04:14.344Z,6.95
2023-03-20T03:06:43.522Z,4.55
2023-03-20T03:09:28.501Z,4.55
2023-03-20T03:12:01.244Z,4.65
2023-03-20T03:14:34.636Z,4.28
2023-03-20T03:17:02.604Z,4.38
2023-03-20T03:19:29.444Z,4.63
2023-03-20T03:21:56.002Z,4.40
2023-03-20T03:24:41.220Z,5.40
2023-03-20T03:27:29.849Z,4.68
2023-03-20T03:29:58.858Z,5.00
2023-03-20T03:32:41.085Z,4.82
2023-03-20T03:35:13.366Z,4.50
2023-03-20T03:37:53.109Z,6.45
2023-03-20T03:40:35.668Z,4.00
2023-03-20T03:43:11.101Z,4.60
2023-03-20T03:45:44.531Z,4.05
2023-03-20T03:48:24.209Z,4.47
2023-03-20T03:51:02.613Z,3.50
2023-03-20T03:53:36.941Z,4.15
2023-03-20T03:56:06.975Z,3.85
2023-03-20T03:58:43.716Z,4.85
2023-03-20T04:01:14.071Z,4.63
2023-03-20T04:03:45.444Z,4.10
2023-03-20T04:06:15.812Z,5.63
2023-03-20T04:08:42.891Z,5.60
2023-03-20T04:11:15.936Z,8.63
2023-03-20T04:13:42.453Z,5.18
2023-03-20T04:16:14.267Z,5.97
2023-03-20T04:18:41.723Z,3.78
2023-03-20T04:21:10.613Z,5.00
2023-03-20T04:23:37.618Z,5.10
2023-03-20T04:26:06.054Z,4.57
2023-03-20T04:28:34.756Z,4.32
2023-03-20T04:31:18.094Z,3.92
2023-03-20T04:34:13.970Z,3.70
2023-03-20T04:39:35.776Z,4.10
2023-03-20T04:42:03.000Z,5.07
2023-03-20T04:44:29.585Z,4.47
2023-03-20T04:46:56.529Z,5.93
2023-03-20T04:49:23.280Z,5.97
2023-03-20T04:51:49.890Z,6.03
2023-03-20T04:54:26.163Z,7.22
2023-03-20T04:56:52.698Z,6.65
2023-03-20T04:59:20.491Z,6.75
2023-03-20T05:01:47.169Z,8.40
2023-03-20T05:04:13.866Z,7.40
2023-03-20T05:06:41.648Z,7.47
2023-03-20T05:09:08.093Z,7.55
2023-03-20T05:11:36.468Z,8.02
2023-03-20T05:14:06.796Z,9.93
2023-03-20T05:16:44.142Z,9.85
2023-03-20T05:19:45.815Z,12.52
2023-03-20T05:22:18.947Z,10.23
2023-03-20T05:25:24.028Z,8.85
2023-03-20T05:28:18.716Z,9.73
2023-03-20T05:30:51.283Z,10.63
2023-03-20T05:33:31.285Z,13.38
2023-03-20T05:36:13.590Z,10.75
2023-03-20T05:39:02.915Z,13.45
2023-03-20T05:41:46.209Z,10.07
2023-03-20T05:44:33.161Z,11.32
2023-03-20T05:47:26.272Z,13.35
2023-03-20T05:49:53.001Z,11.48
2023-03-20T05:52:25.793Z,12.60
2023-03-20T05:55:05.842Z,11.63
2023-03-20T05:57:47.970Z,11.50
2023-03-20T06:00:38.461Z,12.80
2023-03-20T06:03:23.961Z,12.77
2023-03-20T06:05:59.541Z,11.10
2023-03-20T06:08:26.295Z,12.18
2023-03-20T06:10:54.503Z,10.82
2023-03-20T06:13:20.957Z,13.15
2023-03-20T06:15:47.580Z,11.77
2023-03-20T06:18:17.254Z,12.38
2023-03-20T06:20:43.989Z,13.20
2023-03-20T06:23:10.473Z,16.38
2023-03-20T06:25:37.230Z,14.63
2023-03-20T06:28:04.210Z,14.50
2023-03-20T06:30:31.386Z,16.42
2023-03-20T06:32:58.379Z,15.50
2023-03-20T06:35:33.670Z,15.73
2023-03-20T06:38:00.606Z,14.57
2023-03-20T06:40:28.142Z,16.83
2023-03-20T06:42:57.116Z,13.15
2023-03-20T06:45:35.618Z,12.40
2023-03-20T06:48:09.179Z,12.63
2023-03-20T06:50:35.800Z,12.02
2023-03-20T06:53:03.029Z,11.52
2023-03-20T06:55:40.602Z,11.45
2023-03-20T06:58:07.116Z,13.43
2023-03-20T07:00:35.455Z,12.02
2023-03-20T07:03:04.947Z,10.80
2023-03-20T07:05:32.444Z,13.30
2023-03-20T07:07:59.842Z,13.00
2023-03-20T07:10:27.277Z,11.85
2023-03-20T07:12:54.904Z,12.10
2023-03-20T07:15:22.067Z,10.25
2023-03-20T07:17:49.550Z,16.17
2023-03-20T07:20:16.175Z,11.65
2023-03-20T07:22:42.922Z,11.15
2023-03-20T07:25:20.577Z,11.05
2023-03-20T07:27:52.727Z,15.88
2023-03-20T07:30:22.749Z,15.68
2023-03-20T07:32:50.670Z,13.25
2023-03-20T07:35:18.944Z,14.65
2023-03-20T07:37:45.868Z,13.88
2023-03-20T07:40:12.856Z,14.90
2023-03-20T07:42:52.212Z,15.32
2023-03-20T07:45:41.726Z,16.60
2023-03-20T07:48:08.350Z,14.80
2023-03-20T07:50:35.203Z,24.85
2023-03-20T07:53:01.956Z,16.30
2023-03-20T07:55:28.417Z,16.55
2023-03-20T07:57:54.922Z,17.30
2023-03-20T08:00:21.689Z,17.85
2023-03-20T08:02:48.392Z,18.67
2023-03-20T08:05:15.395Z,19.60
2023-03-20T08:07:42.255Z,19.08
2023-03-20T08:10:09.282Z,19.75
2023-03-20T08:12:36.145Z,20.95
2023-03-20T08:15:02.721Z,22.08
2023-03-20T08:17:29.254Z,24.30
2023-03-20T08:19:55.831Z,20.42
2023-03-20T08:22:22.342Z,27.05
2023-03-20T08:24:48.928Z,23.13
2023-03-20T08:27:15.384Z,26.15
2023-03-20T08:29:41.847Z,25.42
2023-03-20T08:32:08.373Z,23.13
2023-03-20T08:34:34.929Z,26.90
2023-03-20T08:37:04.811Z,26.08
2023-03-20T08:39:33.111Z,27.55
2023-03-20T08:42:00.960Z,22.77
2023-03-20T08:44:27.625Z,26.40
2023-03-20T08:46:55.023Z,23.17
2023-03-20T08:49:21.716Z,23.27
2023-03-20T08:51:48.298Z,24.02
2023-03-20T08:54:16.270Z,24.70
2023-03-20T08:56:42.723Z,26.63
2023-03-20T08:59:09.188Z,25.38
2023-03-20T09:01:48.672Z,23.25
2023-03-20T09:04:16.080Z,21.50
2023-03-20T09:06:42.636Z,23.85
2023-03-20T09:09:09.096Z,24.75
2023-03-20T09:11:36.670Z,24.13
2023-03-20T09:14:03.242Z,21.23
2023-03-20T09:16:29.830Z,24.80
2023-03-20T09:18:56.387Z,29.42
2023-03-20T09:21:23.321Z,27.63
2023-03-20T09:23:49.819Z,28.50
2023-03-20T09:26:16.873Z,27.55
2023-03-20T09:28:43.367Z,27.75
2023-03-20T09:31:10.245Z,25.60
2023-03-20T09:33:37.139Z,27.27
2023-03-20T09:36:04.102Z,27.30
2023-03-20T09:38:30.700Z,29.13
2023-03-20T09:40:59.735Z,32.65
2023-03-20T09:43:38.709Z,32.63
2023-03-20T09:46:14.216Z,33.15
2023-03-20T09:48:46.851Z,31.52
2023-03-20T09:51:28.404Z,38.47
2023-03-20T09:54:03.054Z,34.17
2023-03-20T09:56:30.312Z,38.92
2023-03-20T09:59:02.464Z,33.25
2023-03-20T10:01:48.929Z,34.17
2023-03-20T10:04:18.237Z,37.08
2023-03-20T10:06:44.895Z,32.33
2023-03-20T10:09:25.872Z,31.58
2023-03-20T10:12:20.789Z,30.00
2023-03-20T10:14:53.482Z,32.22
2023-03-20T10:17:52.898Z,31.70
2023-03-20T10:20:42.706Z,32.40
2023-03-20T10:23:34.175Z,29.98
2023-03-20T10:26:05.566Z,34.05
2023-03-20T10:28:36.798Z,29.05
2023-03-20T10:31:24.740Z,27.50
2023-03-20T10:34:01.625Z,27.35
2023-03-20T10:36:55.880Z,29.73
2023-03-20T10:39:39.812Z,27.13
2023-03-20T10:42:14.575Z,24.05
2023-03-20T10:44:43.568Z,26.33
2023-03-20T10:47:13.080Z,27.02
2023-03-20T10:49:58.254Z,30.65
2023-03-20T10:52:36.461Z,28.88
2023-03-20T10:55:16.969Z,30.05
2023-03-20T10:57:48.394Z,28.30
2023-03-20T11:00:34.034Z,32.80
2023-03-20T11:03:00.949Z,34.55
2023-03-20T11:05:32.411Z,32.25
2023-03-20T11:08:06.444Z,35.85
2023-03-20T11:10:36.700Z,34.90
2023-03-20T11:13:26.179Z,35.30
2023-03-20T11:15:54.345Z,34.83
2023-03-20T11:18:24.554Z,34.45
2023-03-20T11:20:54.020Z,36.17
2023-03-20T11:23:25.136Z,39.55
2023-03-20T11:26:03.446Z,41.47
2023-03-20T11:28:32.117Z,35.05
2023-03-20T11:31:17.290Z,35.58
2023-03-20T11:33:46.100Z,37.50
2023-03-20T11:36:27.811Z,37.10
2023-03-20T11:38:59.716Z,38.72
2023-03-20T11:41:28.175Z,37.25
2023-03-20T11:43:55.141Z,39.80
2023-03-20T11:46:23.353Z,35.45
2023-03-20T11:49:20.866Z,40.20
2023-03-20T11:51:47.405Z,36.15
2023-03-20T11:54:19.547Z,36.00
2023-03-20T11:56:57.496Z,35.72
2023-03-20T11:59:32.858Z,35.85
2023-03-20T12:02:00.277Z,37.05
2023-03-20T12:04:28.541Z,36.22
2023-03-20T12:07:21.892Z,37.22
2023-03-20T12:09:51.573Z,35.28
2023-03-20T12:12:38.553Z,34.30
2023-03-20T12:15:10.682Z,32.88
2023-03-20T12:17:55.025Z,33.30
2023-03-20T12:20:29.962Z,34.95
2023-03-20T12:23:01.668Z,37.22
2023-03-20T12:25:32.597Z,31.52
2023-03-20T12:28:06.346Z,34.72
2023-03-20T12:31:20.951Z,30.75
2023-03-20T12:34:06.368Z,34.85
2023-03-20T12:36:35.985Z,30.83
2023-03-20T12:39:11.354Z,30.75
2023-03-20T12:42:04.852Z,28.48
2023-03-20T12:44:49.340Z,30.90
2023-03-20T12:47:53.036Z,28.48
2023-03-20T12:50:33.597Z,27.48
2023-03-20T12:53:28.212Z,30.48
2023-03-20T12:56:06.745Z,27.27
2023-03-20T12:58:48.315Z,25.23
2023-03-20T13:01:22.895Z,26.33
2023-03-20T13:04:26.566Z,26.65
2023-03-20T13:07:07.681Z,28.45
2023-03-20T13:10:08.932Z,27.17
2023-03-20T13:12:47.468Z,23.52
2023-03-20T13:15:22.850Z,26.02
2023-03-20T13:17:55.286Z,22.88
2023-03-20T13:20:27.259Z,24.77
2023-03-20T13:23:05.619Z,22.00
2023-03-20T13:25:53.762Z,20.45
2023-03-20T13:28:38.104Z,19.35
2023-03-20T13:31:23.994Z,22.77
2023-03-20T13:34:16.861Z,24.42
2023-03-20T13:37:24.226Z,21.27
2023-03-20T13:40:04.661Z,20.23
2023-03-20T13:42:37.067Z,22.63
2023-03-20T13:45:34.875Z,19.30
2023-03-20T13:48:24.983Z,19.10
2023-03-20T13:51:06.243Z,19.42
2023-03-20T13:53:43.269Z,21.48
2023-03-20T13:56:33.373Z,19.52
2023-03-20T13:59:11.454Z,19.13
2023-03-20T14:01:50.853Z,19.75
2023-03-20T14:04:21.200Z,18.20
2023-03-20T14:06:51.420Z,20.38
2023-03-20T14:09:37.531Z,21.98
2023-03-20T14:12:09.912Z,17.33
2023-03-20T14:15:02.725Z,20.08
2023-03-20T14:17:32.385Z,18.20
2023-03-20T14:20:11.931Z,17.83
2023-03-20T14:22:40.896Z,17.48
2023-03-20T14:25:17.698Z,21.77
2023-03-20T14:27:56.730Z,21.63
2023-03-20T14:30:32.343Z,23.38
2023-03-20T14:33:15.328Z,24.35
2023-03-20T14:35:52.415Z,24.10
2023-03-20T14:38:25.987Z,24.38
2023-03-20T14:41:11.220Z,25.08
2023-03-20T14:44:06.269Z,24.00
2023-03-20T14:46:57.126Z,22.70
2023-03-20T14:49:32.039Z,25.30
2023-03-20T14:52:12.549Z,27.30
2023-03-20T14:54:41.464Z,27.45
2023-03-20T14:57:10.457Z,23.15
2023-03-20T14:59:37.215Z,25.15
2023-03-20T15:02:04.172Z,24.65
2023-03-20T15:04:42.085Z,25.38
2023-03-20T15:07:26.864Z,28.73
2023-03-20T15:09:59.467Z,26.40
2023-03-20T15:12:27.886Z,32.58
2023-03-20T15:15:08.234Z,31.92
2023-03-20T15:17:38.839Z,36.85
2023-03-20T15:20:23.282Z,34.03
2023-03-20T15:22:58.130Z,35.88
2023-03-20T15:25:45.824Z,36.75
2023-03-20T15:28:19.604Z,36.47
2023-03-20T15:30:48.449Z,39.22
2023-03-20T15:33:35.903Z,40.80
2023-03-20T15:36:10.160Z,36.05
2023-03-20T15:38:37.178Z,35.90
2023-03-20T15:41:08.162Z,37.90
2023-03-20T15:43:38.240Z,37.90
2023-03-20T15:46:17.851Z,38.35
2023-03-20T15:48:49.448Z,41.30
2023-03-20T15:51:16.005Z,37.60
2023-03-20T15:53:45.448Z,38.05
2023-03-20T15:56:18.636Z,38.88
2023-03-20T15:58:46.222Z,38.20
2023-03-20T16:01:21.237Z,34.20
2023-03-20T16:03:48.760Z,40.03
2023-03-20T16:06:18.596Z,38.67
2023-03-20T16:08:46.871Z,39.78
2023-03-20T16:11:15.875Z,40.80
2023-03-20T16:13:46.455Z,42.20
2023-03-20T16:16:18.167Z,40.05
2023-03-20T16:18:47.762Z,42.55
2023-03-20T16:21:26.992Z,38.75
2023-03-20T16:23:57.997Z,38.47
2023-03-20T16:26:27.158Z,44.08
2023-03-20T16:28:59.464Z,46.53
2023-03-20T16:31:29.113Z,38.45
2023-03-20T16:34:04.941Z,36.88
2023-03-20T16:36:34.258Z,36.75
2023-03-20T16:39:10.555Z,38.22
2023-03-20T16:41:39.520Z,39.08
2023-03-20T16:44:15.007Z,40.83
2023-03-20T16:47:01.635Z,35.22
2023-03-20T16:49:34.784Z,41.53
2023-03-20T16:52:11.668Z,42.17
2023-03-20T16:54:38.680Z,48.45
2023-03-20T16:57:09.470Z,40.00
2023-03-20T16:59:39.188Z,39.25
2023-03-20T17:02:22.072Z,39.22
2023-03-20T17:04:49.027Z,40.40
2023-03-20T17:07:20.568Z,38.70
2023-03-20T17:10:18.165Z,40.72
2023-03-20T17:12:46.706Z,38.33
2023-03-20T17:15:19.049Z,42.88
2023-03-20T17:17:45.603Z,40.85
2023-03-20T17:20:32.033Z,39.25
2023-03-20T17:22:58.649Z,39.42
2023-03-20T17:25:25.602Z,40.10
2023-03-20T17:27:52.318Z,40.33
2023-03-20T17:30:24.967Z,38.55
2023-03-20T17:32:51.776Z,40.42
2023-03-20T17:35:18.427Z,40.00
2023-03-20T17:37:45.375Z,40.63
2023-03-20T17:40:20.983Z,38.65
2023-03-20T17:42:48.667Z,38.50
2023-03-20T17:45:19.892Z,40.85
2023-03-20T17:47:47.319Z,36.97
2023-03-20T17:50:24.492Z,36.90
2023-03-20T17:52:51.155Z,38.35
2023-03-20T17:55:17.788Z,38.17
2023-03-20T17:57:44.826Z,39.28
2023-03-20T18:00:23.807Z,41.15
2023-03-20T18:02:52.178Z,38.55
2023-03-20T18:05:18.741Z,39.60
2023-03-20T18:07:45.327Z,41.13
2023-03-20T18:10:28.863Z,38.72
2023-03-20T18:12:55.399Z,40.50
2023-03-20T18:15:22.546Z,40.33
2023-03-20T18:17:49.219Z,39.92
2023-03-20T18:20:28.968Z,37.78
2023-03-20T18:22:55.777Z,36.95
2023-03-20T18:25:22.961Z,38.85
2023-03-20T18:27:49.879Z,39.85
2023-03-20T18:30:18.571Z,39.00
2023-03-20T18:32:45.648Z,37.33
2023-03-20T18:35:13.101Z,35.55
2023-03-20T18:37:40.807Z,36.75
2023-03-20T18:40:20.859Z,41.67
2023-03-20T18:42:47.473Z,37.95
2023-03-20T18:45:14.296Z,42.28
2023-03-20T18:47:40.981Z,35.20
2023-03-20T18:50:29.153Z,37.85
2023-03-20T18:52:57.255Z,37.63
2023-03-20T18:55:25.183Z,38.42
2023-03-20T18:57:52.474Z,34.63
2023-03-20T19:00:21.444Z,34.08
2023-03-20T19:02:49.029Z,31.45
2023-03-20T19:05:15.747Z,30.60
2023-03-20T19:07:42.306Z,33.25
2023-03-20T19:10:25.748Z,32.47
2023-03-20T19:12:53.057Z,34.55
2023-03-20T19:15:20.606Z,33.10
2023-03-20T19:17:47.363Z,33.33
2023-03-20T19:20:27.538Z,34.88
2023-03-20T19:22:54.036Z,32.78
2023-03-20T19:25:20.487Z,27.95
2023-03-20T19:27:47.013Z,34.65
2023-03-20T19:30:30.525Z,28.70
2023-03-20T19:32:57.490Z,27.27
2023-03-20T19:35:50.312Z,26.80
2023-03-20T19:38:19.467Z,27.15
2023-03-20T19:40:48.301Z,26.55
2023-03-20T19:43:16.021Z,25.23
2023-03-20T19:45:43.981Z,27.38
2023-03-20T19:48:16.209Z,28.38
2023-03-20T19:50:44.066Z,26.30
2023-03-20T19:53:13.033Z,24.08
2023-03-20T19:55:39.893Z,24.60
2023-03-20T19:58:07.133Z,23.63
2023-03-20T20:03:23.177Z,24.50
2023-03-20T20:05:52.567Z,22.85
2023-03-20T20:08:30.891Z,24.85
2023-03-20T20:11:06.349Z,24.60
2023-03-20T20:13:34.234Z,21.73
2023-03-20T20:16:01.070Z,18.33
2023-03-20T20:18:28.806Z,18.10
2023-03-20T20:22:02.420Z,18.52
2023-03-20T20:23:45.301Z,16.52
2023-03-20T20:26:11.821Z,14.15
2023-03-20T20:28:38.289Z,13.60
2023-03-20T20:31:04.919Z,14.90
2023-03-20T20:33:34.469Z,18.15
2023-03-20T20:36:59.081Z,14.48
2023-03-20T20:38:55.682Z,13.15
2023-03-20T20:41:22.366Z,15.00
2023-03-20T20:44:14.629Z,14.18
2023-03-20T20:46:35.535Z,15.02
2023-03-20T20:49:18.124Z,14.63
2023-03-20T20:51:46.180Z,15.27
2023-03-20T20:54:12.721Z,15.35
2023-03-20T20:56:39.239Z,14.98
2023-03-20T20:59:05.801Z,16.38
2023-03-20T21:01:32.359Z,15.43
2023-03-20T21:03:59.065Z,16.15
2023-03-20T21:06:50.526Z,16.60
2023-03-20T21:09:12.413Z,17.05
2023-03-20T21:11:39.037Z,19.33
2023-03-20T21:14:05.636Z,16.45
2023-03-20T21:16:32.154Z,14.55
2023-03-20T21:18:58.765Z,15.25
2023-03-20T21:21:25.368Z,15.75
2023-03-20T21:23:51.808Z,22.02
2023-03-20T21:26:18.634Z,16.95
2023-03-20T21:28:45.117Z,16.90
2023-03-20T21:31:26.527Z,16.10
2023-03-20T21:33:54.253Z,17.33
2023-03-20T21:36:21.369Z,16.77
2023-03-20T21:41:37.573Z,16.52
2023-03-20T21:44:05.487Z,17.95
2023-03-20T21:47:04.120Z,17.38
2023-03-20T22:03:33.834Z,19.60
2023-03-20T22:15:12.767Z,17.05
2023-03-20T22:26:11.282Z,9.70
2023-03-20T22:29:14.939Z,7.60
2023-03-20T22:34:46.451Z,6.18
2023-03-20T22:45:10.616Z,5.80
2023-03-20T22:47:37.849Z,7.00
2023-03-20T22:50:04.806Z,5.82
2023-03-20T22:52:47.603Z,4.65
2023-03-20T22:55:15.709Z,4.78
2023-03-20T22:57:50.174Z,6.93
2023-03-20T23:00:27.643Z,5.15
2023-03-20T23:02:57.384Z,5.80
2023-03-20T23:05:27.011Z,5.35
2023-03-20T23:07:53.497Z,5.03
2023-03-20T23:10:19.998Z,4.70
2023-03-20T23:12:46.473Z,6.30
2023-03-20T23:15:13.001Z,4.15
2023-03-20T23:17:39.437Z,5.88
2023-03-20T23:20:12.340Z,4.20
2023-03-20T23:22:39.791Z,4.20
2023-03-20T23:25:16.523Z,6.88
2023-03-20T23:27:47.439Z,4.57
2023-03-20T23:30:14.697Z,4.45
2023-03-20T23:32:42.553Z,4.32
2023-03-20T23:35:09.171Z,5.68
2023-03-20T23:37:36.071Z,4.93
2023-03-20T23:40:03.003Z,6.82
2023-03-20T23:42:30.925Z,4.00
2023-03-20T23:45:02.172Z,5.53
2023-03-20T23:47:44.773Z,5.80
2023-03-20T23:50:17.426Z,5.65
2023-03-20T23:53:01.112Z,6.00
2023-03-20T23:55:30.462Z,11.48
2023-03-20T23:57:56.981Z,8.02
